createdAt,value
2018-07-20T00:03:55.937Z,101433.13
2018-07-20T00:08:58.098Z,101440.05
2018-07-20T00:14:00.255Z,101433.22
2018-07-20T00:19:02.429Z,101440.87
2018-07-20T00:24:04.583Z,101436.61
2018-07-20T00:29:06.743Z,101434.84
2018-07-20T00:34:08.891Z,101431.72
2018-07-20T00:39:11.113Z,101435.83
2018-07-20T00:44:13.260Z,101439.88
2018-07-20T00:49:15.418Z,101429.52
2018-07-20T00:54:17.581Z,101423.94
2018-07-20T00:59:19.761Z,101435.31
2018-07-20T01:04:21.944Z,101441.66
2018-07-20T01:09:24.070Z,101431.93
2018-07-20T01:14:26.187Z,101433.03
2018-07-20T01:19:28.309Z,101280.88
2018-07-20T01:24:30.463Z,101435.70
2018-07-20T01:29:32.613Z,101431.06
2018-07-20T01:34:41.612Z,101428.86
2018-07-20T01:39:43.718Z,101429.70
2018-07-20T01:44:45.875Z,101424.23
2018-07-20T01:49:47.986Z,101431.25
2018-07-20T01:54:50.171Z,101430.60
2018-07-20T01:59:52.299Z,101431.00
2018-07-20T02:04:54.434Z,101425.52
2018-07-20T02:09:56.548Z,101428.05
2018-07-20T02:14:59.203Z,101418.62
2018-07-20T02:20:01.373Z,101411.22
2018-07-20T02:25:03.570Z,101414.62
2018-07-20T02:30:06.267Z,101414.50
2018-07-20T02:35:08.427Z,101410.17
2018-07-20T02:40:10.601Z,101418.23
2018-07-20T02:45:12.777Z,101421.59
2018-07-20T02:50:14.922Z,101413.20
2018-07-20T02:55:17.113Z,101407.77
2018-07-20T03:00:19.264Z,101409.22
2018-07-20T03:05:21.411Z,101399.59
2018-07-20T03:10:23.549Z,101396.49
2018-07-20T03:15:25.660Z,101397.61
2018-07-20T03:20:27.804Z,101408.53
2018-07-20T03:25:29.970Z,101407.42
2018-07-20T03:30:32.131Z,101415.00
2018-07-20T03:35:34.274Z,101408.79
2018-07-20T03:40:36.395Z,101408.79
2018-07-20T03:45:38.520Z,101401.30
2018-07-20T03:50:40.703Z,101395.88
2018-07-20T03:55:42.827Z,101397.42
2018-07-20T04:00:44.991Z,101394.77
2018-07-20T04:05:47.098Z,101401.04
2018-07-20T04:10:49.525Z,101393.04
2018-07-20T04:15:51.658Z,101387.59
2018-07-20T04:20:53.795Z,101385.25
2018-07-20T04:25:55.957Z,101390.72
2018-07-20T04:30:58.134Z,101375.05
2018-07-20T04:36:00.276Z,101375.08
2018-07-20T04:41:02.419Z,101374.45
2018-07-20T04:46:04.563Z,101377.39
2018-07-20T04:51:06.770Z,101376.75
2018-07-20T04:56:08.930Z,101373.45
2018-07-20T05:01:11.071Z,101376.03
2018-07-20T05:06:13.193Z,101372.25
2018-07-20T05:11:15.331Z,101380.20
2018-07-20T05:16:17.494Z,101377.87
2018-07-20T05:21:19.667Z,101374.33
2018-07-20T05:26:21.815Z,101370.09
2018-07-20T05:31:23.918Z,101377.88
2018-07-20T05:36:26.075Z,101380.71
2018-07-20T05:41:28.272Z,101365.91
2018-07-20T05:46:30.386Z,101364.10
2018-07-20T05:51:32.521Z,101371.23
2018-07-20T05:56:34.659Z,101367.68
2018-07-20T06:01:36.809Z,101363.66
2018-07-20T06:06:38.927Z,101364.83
2018-07-20T06:11:41.121Z,101365.05
2018-07-20T06:16:43.266Z,101370.61
2018-07-20T06:21:45.394Z,101367.00
2018-07-20T06:26:47.566Z,101372.00
2018-07-20T06:31:49.726Z,101367.42
2018-07-20T06:36:51.886Z,101373.09
2018-07-20T06:41:54.026Z,101367.14
2018-07-20T06:46:56.211Z,101369.00
2018-07-20T06:51:58.372Z,101365.89
2018-07-20T06:57:00.564Z,101363.02
2018-07-20T07:02:02.756Z,101354.65
2018-07-20T07:07:05.746Z,101360.77
2018-07-20T07:12:07.916Z,101367.59
2018-07-20T07:17:10.305Z,101363.87
2018-07-20T07:22:12.579Z,101365.27
2018-07-20T07:27:14.801Z,101360.20
2018-07-20T07:32:16.946Z,101359.81
2018-07-20T07:37:19.089Z,101354.33
2018-07-20T07:42:21.243Z,101353.11
2018-07-20T07:47:23.413Z,101360.45
2018-07-20T07:52:25.547Z,101354.09
2018-07-20T07:57:27.674Z,101348.55
2018-07-20T08:02:30.664Z,101339.59
2018-07-20T08:07:32.817Z,101336.17
2018-07-20T08:12:34.974Z,101338.36
2018-07-20T08:17:37.128Z,101340.09
2018-07-20T08:22:39.297Z,101347.81
2018-07-20T08:27:41.521Z,101339.70
2018-07-20T08:32:43.668Z,101331.11
2018-07-20T08:37:45.850Z,101328.98
2018-07-20T08:42:48.032Z,101333.23
2018-07-20T08:47:50.211Z,101334.53
2018-07-20T08:52:52.381Z,101321.66
2018-07-20T08:57:54.567Z,101320.74
2018-07-20T09:02:56.703Z,101316.02
2018-07-20T09:07:58.910Z,101306.59
2018-07-20T09:13:01.160Z,101302.72
2018-07-20T09:18:03.304Z,101304.45
2018-07-20T09:23:05.586Z,101304.33
2018-07-20T09:28:07.754Z,101297.03
2018-07-20T09:33:09.906Z,101300.48
2018-07-20T09:38:12.089Z,101293.18
2018-07-20T09:43:14.318Z,101291.91
2018-07-20T09:48:16.493Z,101295.67
2018-07-20T09:53:18.735Z,101299.53
2018-07-20T09:58:20.903Z,101297.33
2018-07-20T10:03:23.091Z,101291.16
2018-07-20T10:08:25.205Z,101293.34
2018-07-20T10:13:27.387Z,101285.05
2018-07-20T10:18:29.532Z,101280.19
2018-07-20T10:23:31.712Z,101278.91
2018-07-20T10:28:33.966Z,101268.02
2018-07-20T10:33:36.100Z,101263.94
2018-07-20T10:38:38.281Z,101259.74
2018-07-20T10:43:40.428Z,101244.72
2018-07-20T10:48:43.338Z,101252.32
2018-07-20T10:53:45.508Z,101259.28
2018-07-20T10:58:47.636Z,101252.62
2018-07-20T11:03:49.756Z,101249.88
2018-07-20T11:08:51.965Z,101245.75
2018-07-20T11:13:54.444Z,101246.13
2018-07-20T11:18:56.644Z,101242.00
2018-07-20T11:23:58.819Z,101235.50
2018-07-20T11:29:01.106Z,101229.20
2018-07-20T11:34:03.300Z,101231.11
2018-07-20T11:39:07.161Z,101227.91
2018-07-20T11:44:09.406Z,101225.61
2018-07-20T11:49:11.607Z,101219.16
2018-07-20T11:54:13.790Z,101216.31
2018-07-20T11:59:16.014Z,101213.56
2018-07-20T12:04:18.163Z,101209.41
2018-07-20T12:09:20.330Z,101205.56
2018-07-20T12:14:22.483Z,101202.16
2018-07-20T12:19:24.628Z,101199.38
2018-07-20T12:24:26.805Z,101200.81
2018-07-20T12:29:28.965Z,101191.98
2018-07-20T12:34:31.138Z,101189.65
2018-07-20T12:39:33.295Z,101182.11
2018-07-20T12:44:35.507Z,101178.80
2018-07-20T12:49:37.684Z,101183.69
2018-07-20T12:54:39.922Z,101173.72
2018-07-20T12:59:42.104Z,101160.54
2018-07-20T13:04:44.279Z,101162.41
2018-07-20T13:09:46.458Z,101164.61
2018-07-20T13:14:48.898Z,101167.18
2018-07-20T13:19:51.422Z,101161.05
2018-07-20T13:24:53.657Z,101155.41
2018-07-20T13:29:55.840Z,101149.75
2018-07-20T13:34:58.062Z,101145.91
2018-07-20T13:40:00.292Z,101141.41
2018-07-20T13:45:02.575Z,101136.58
2018-07-20T13:50:04.938Z,101126.21
2018-07-20T13:55:07.115Z,101121.37
2018-07-20T14:00:09.380Z,101117.39
2018-07-20T14:05:11.539Z,101126.25
2018-07-20T14:10:13.723Z,101118.69
2018-07-20T14:15:15.909Z,101108.69
2018-07-20T14:20:18.062Z,101105.42
2018-07-20T14:25:20.223Z,101098.62
2018-07-20T14:30:22.396Z,101092.56
2018-07-20T14:35:24.599Z,101093.91
2018-07-20T14:40:26.796Z,101086.34
2018-07-20T14:45:28.974Z,101088.30
2018-07-20T14:50:31.117Z,101085.77
2018-07-20T14:55:33.311Z,101079.20
2018-07-20T15:00:35.472Z,101079.47
2018-07-20T15:05:37.812Z,101082.75
2018-07-20T15:10:40.023Z,101077.09
2018-07-20T15:15:42.235Z,101073.77
2018-07-20T15:20:44.437Z,101072.75
2018-07-20T15:25:46.652Z,101069.69
2018-07-20T15:30:48.921Z,101066.18
2018-07-20T15:35:51.101Z,101069.23
2018-07-20T15:40:53.339Z,101070.03
2018-07-20T15:46:05.770Z,101067.87
2018-07-20T15:50:57.695Z,101065.72
2018-07-20T15:55:59.927Z,101067.66
2018-07-20T16:01:02.169Z,101060.02
2018-07-20T16:06:04.581Z,101061.18
2018-07-20T16:11:06.789Z,101058.05
2018-07-20T16:16:08.989Z,101057.34
2018-07-20T16:21:11.158Z,101051.66
2018-07-20T16:26:13.398Z,101049.59
2018-07-20T16:31:15.539Z,101048.50
2018-07-20T16:36:17.742Z,101044.04
2018-07-20T16:41:19.918Z,101032.61
2018-07-20T16:46:22.096Z,101028.21
2018-07-20T16:51:24.283Z,101025.08
2018-07-20T16:56:26.470Z,101022.48
2018-07-20T17:01:28.630Z,101016.16
2018-07-20T17:06:37.921Z,101014.42
2018-07-20T17:11:40.505Z,101010.22
2018-07-20T17:16:42.699Z,101006.96
2018-07-20T17:21:44.895Z,101004.94
2018-07-20T17:26:47.076Z,100998.08
2018-07-20T17:31:49.336Z,100999.25
2018-07-20T17:36:51.487Z,100998.76
2018-07-20T17:41:53.690Z,101008.77
2018-07-20T17:46:55.885Z,101007.97
2018-07-20T17:51:58.075Z,101008.37
2018-07-20T17:57:00.249Z,101013.44
2018-07-20T18:02:02.430Z,101013.44
2018-07-20T18:07:04.670Z,101014.73
2018-07-20T18:12:06.864Z,101007.47
2018-07-20T18:17:09.096Z,101016.77
2018-07-20T18:22:11.274Z,101020.00
2018-07-20T18:27:13.981Z,101021.59
2018-07-20T18:32:16.112Z,101020.11
2018-07-20T18:37:18.312Z,101010.33
2018-07-20T18:42:20.506Z,101021.54
2018-07-20T18:47:22.815Z,101023.77
2018-07-20T18:52:25.000Z,101027.98
2018-07-20T18:57:27.239Z,101024.53
2018-07-20T19:02:29.457Z,101018.18
2018-07-20T19:07:31.635Z,101020.66
2018-07-20T19:12:33.822Z,101016.06
2018-07-20T19:17:36.055Z,101021.44
2018-07-20T19:22:38.267Z,101021.97
2018-07-20T19:27:40.479Z,101023.77
2018-07-20T19:32:42.717Z,101027.77
2018-07-20T19:37:44.960Z,101023.75
2018-07-20T19:42:47.189Z,101022.09
2018-07-20T19:47:49.446Z,101027.00
2018-07-20T19:52:51.725Z,101028.00
2018-07-20T19:57:53.925Z,101027.17
2018-07-20T20:02:56.136Z,101027.57
2018-07-20T20:07:58.377Z,101031.89
2018-07-20T20:13:00.580Z,101034.94
2018-07-20T20:18:02.844Z,101039.75
2018-07-20T20:23:05.136Z,101039.88
2018-07-20T20:28:07.364Z,101038.74
2018-07-20T20:33:09.688Z,101037.59
2018-07-20T20:38:11.916Z,101053.73
2018-07-20T20:43:14.139Z,101050.92
2018-07-20T20:48:16.412Z,101049.80
2018-07-20T20:53:18.583Z,101048.55
2018-07-20T20:58:20.842Z,101044.05
2018-07-20T21:03:23.048Z,101050.06
2018-07-20T21:08:25.278Z,101046.14
2018-07-20T21:13:27.464Z,101046.83
2018-07-20T21:18:29.701Z,101042.20
2018-07-20T21:23:31.916Z,101041.00
2018-07-20T21:28:34.155Z,101038.13
2018-07-20T21:33:36.420Z,101043.81
2018-07-20T21:38:38.622Z,101040.05
2018-07-20T21:43:40.884Z,101050.73
2018-07-20T21:48:43.132Z,101048.56
2018-07-20T21:53:45.348Z,101052.02
2018-07-20T21:58:47.546Z,101057.14
2018-07-20T22:03:49.775Z,101053.37
2018-07-20T22:08:51.984Z,101060.23
2018-07-20T22:13:54.227Z,101060.27
2018-07-20T22:18:56.452Z,101063.77
2018-07-20T22:23:58.672Z,101065.09
2018-07-20T22:29:00.850Z,101068.11
2018-07-20T22:34:03.113Z,101065.96
2018-07-20T22:39:08.200Z,101069.38
2018-07-20T22:44:10.384Z,101066.77
2018-07-20T22:49:12.575Z,101070.19
2018-07-20T22:54:14.724Z,101071.47
2018-07-20T22:59:16.889Z,101063.70
2018-07-20T23:04:19.047Z,101067.55
2018-07-20T23:09:21.219Z,101054.67
2018-07-20T23:14:23.386Z,101057.23
2018-07-20T23:19:25.562Z,101058.56
2018-07-20T23:24:27.720Z,101055.09
2018-07-20T23:29:29.891Z,101052.53
2018-07-20T23:34:32.040Z,101056.77
2018-07-20T23:39:34.210Z,101060.16
2018-07-20T23:44:36.414Z,101058.00
2018-07-20T23:49:38.557Z,101054.97
2018-07-20T23:54:40.721Z,101056.13
2018-07-20T23:59:42.961Z,101060.42
